sensor_id;sensor_type;location;lat;lon;timestamp;temperature;humidity
851;DHT22;412;51.400;7.480;2023-02-28T00:01:22;5.10;94.30
851;DHT22;412;51.400;7.480;2023-02-28T00:03:48;5.20;94.30
851;DHT22;412;51.400;7.480;2023-02-28T00:06:14;5.30;94.40
851;DHT22;412;51.400;7.480;2023-02-28T00:08:40;5.30;94.40
851;DHT22;412;51.400;7.480;2023-02-28T00:11:11;5.30;93.80
851;DHT22;412;51.400;7.480;2023-02-28T00:13:40;5.40;93.90
851;DHT22;412;51.400;7.480;2023-02-28T00:16:11;5.50;93.80
851;DHT22;412;51.400;7.480;2023-02-28T00:18:39;5.30;94.10
851;DHT22;412;51.400;7.480;2023-02-28T00:21:05;5.30;94.00
851;DHT22;412;51.400;7.480;2023-02-28T00:23:32;5.70;93.90
851;DHT22;412;51.400;7.480;2023-02-28T00:25:58;6.00;94.00
851;DHT22;412;51.400;7.480;2023-02-28T00:28:24;5.20;93.60
851;DHT22;412;51.400;7.480;2023-02-28T00:30:50;5.20;93.80
851;DHT22;412;51.400;7.480;2023-02-28T00:33:16;5.20;93.90
851;DHT22;412;51.400;7.480;2023-02-28T00:35:42;5.20;93.90
851;DHT22;412;51.400;7.480;2023-02-28T00:38:12;5.10;93.70
851;DHT22;412;51.400;7.480;2023-02-28T00:40:37;5.10;93.70
851;DHT22;412;51.400;7.480;2023-02-28T00:43:03;5.10;93.60
851;DHT22;412;51.400;7.480;2023-02-28T00:45:29;5.10;93.60
851;DHT22;412;51.400;7.480;2023-02-28T00:47:55;5.10;93.60
851;DHT22;412;51.400;7.480;2023-02-28T00:50:21;5.30;93.60
851;DHT22;412;51.400;7.480;2023-02-28T00:52:47;5.40;93.50
851;DHT22;412;51.400;7.480;2023-02-28T00:55:13;5.20;93.30
851;DHT22;412;51.400;7.480;2023-02-28T00:57:38;5.10;93.30
851;DHT22;412;51.400;7.480;2023-02-28T01:00:06;5.10;93.50
851;DHT22;412;51.400;7.480;2023-02-28T01:02:32;5.30;99.90
851;DHT22;412;51.400;7.480;2023-02-28T01:04:58;5.00;93.70
851;DHT22;412;51.400;7.480;2023-02-28T01:09:50;5.00;94.10
851;DHT22;412;51.400;7.480;2023-02-28T01:12:18;5.30;95.20
851;DHT22;412;51.400;7.480;2023-02-28T01:14:43;5.20;95.40
851;DHT22;412;51.400;7.480;2023-02-28T01:17:09;4.90;95.20
851;DHT22;412;51.400;7.480;2023-02-28T01:19:35;4.90;95.30
851;DHT22;412;51.400;7.480;2023-02-28T01:22:05;5.80;95.30
851;DHT22;412;51.400;7.480;2023-02-28T01:24:31;4.20;99.90
851;DHT22;412;51.400;7.480;2023-02-28T01:26:57;4.80;95.10
851;DHT22;412;51.400;7.480;2023-02-28T01:31:49;4.70;94.80
851;DHT22;412;51.400;7.480;2023-02-28T01:34:14;5.40;95.70
851;DHT22;412;51.400;7.480;2023-02-28T01:36:40;4.70;95.50
851;DHT22;412;51.400;7.480;2023-02-28T01:39:06;5.40;96.10
851;DHT22;412;51.400;7.480;2023-02-28T01:41:34;4.60;95.90
851;DHT22;412;51.400;7.480;2023-02-28T01:44:03;4.60;95.80
851;DHT22;412;51.400;7.480;2023-02-28T01:46:34;4.60;95.70
851;DHT22;412;51.400;7.480;2023-02-28T01:49:05;4.90;95.90
851;DHT22;412;51.400;7.480;2023-02-28T01:51:38;4.60;95.70
851;DHT22;412;51.400;7.480;2023-02-28T01:54:10;4.60;95.60
851;DHT22;412;51.400;7.480;2023-02-28T01:56:49;5.30;96.20
851;DHT22;412;51.400;7.480;2023-02-28T01:59:29;4.40;95.90
851;DHT22;412;51.400;7.480;2023-02-28T02:01:57;5.00;96.50
851;DHT22;412;51.400;7.480;2023-02-28T02:04:27;4.30;96.60
851;DHT22;412;51.400;7.480;2023-02-28T02:06:58;4.40;96.90
851;DHT22;412;51.400;7.480;2023-02-28T02:09:23;4.80;96.90
851;DHT22;412;51.400;7.480;2023-02-28T02:11:49;4.30;96.50
851;DHT22;412;51.400;7.480;2023-02-28T02:17:32;4.40;96.40
851;DHT22;412;51.400;7.480;2023-02-28T02:30:41;4.00;97.10
851;DHT22;412;51.400;7.480;2023-02-28T02:36:05;4.00;97.70
851;DHT22;412;51.400;7.480;2023-02-28T02:38:49;4.10;97.60
851;DHT22;412;51.400;7.480;2023-02-28T02:41:38;4.10;97.00
851;DHT22;412;51.400;7.480;2023-02-28T02:46:55;4.10;96.70
851;DHT22;412;51.400;7.480;2023-02-28T02:49:30;4.00;96.80
851;DHT22;412;51.400;7.480;2023-02-28T02:52:00;4.00;96.80
851;DHT22;412;51.400;7.480;2023-02-28T02:54:29;3.90;96.50
851;DHT22;412;51.400;7.480;2023-02-28T02:56:59;3.80;96.60
851;DHT22;412;51.400;7.480;2023-02-28T02:59:28;4.20;97.80
851;DHT22;412;51.400;7.480;2023-02-28T03:01:59;3.60;97.90
851;DHT22;412;51.400;7.480;2023-02-28T03:04:28;3.60;98.30
851;DHT22;412;51.400;7.480;2023-02-28T03:06:56;3.50;98.60
851;DHT22;412;51.400;7.480;2023-02-28T03:09:23;3.50;98.70
851;DHT22;412;51.400;7.480;2023-02-28T03:11:50;3.90;99.10
851;DHT22;412;51.400;7.480;2023-02-28T03:22:45;3.60;98.70
851;DHT22;412;51.400;7.480;2023-02-28T03:25:36;3.60;98.80
851;DHT22;412;51.400;7.480;2023-02-28T03:28:18;3.40;99.10
851;DHT22;412;51.400;7.480;2023-02-28T03:30:54;3.80;99.90
851;DHT22;412;51.400;7.480;2023-02-28T03:33:25;3.10;99.90
851;DHT22;412;51.400;7.480;2023-02-28T03:35:59;3.20;99.90
851;DHT22;412;51.400;7.480;2023-02-28T03:38:54;3.30;99.90
851;DHT22;412;51.400;7.480;2023-02-28T03:41:28;3.40;99.70
851;DHT22;412;51.400;7.480;2023-02-28T03:44:04;3.80;99.20
851;DHT22;412;51.400;7.480;2023-02-28T03:46:34;3.40;98.70
851;DHT22;412;51.400;7.480;2023-02-28T03:49:02;3.50;98.50
851;DHT22;412;51.400;7.480;2023-02-28T03:51:32;3.50;97.90
851;DHT22;412;51.400;7.480;2023-02-28T03:54:02;3.50;97.50
851;DHT22;412;51.400;7.480;2023-02-28T03:56:34;3.50;97.20
851;DHT22;412;51.400;7.480;2023-02-28T03:59:08;3.80;97.20
851;DHT22;412;51.400;7.480;2023-02-28T04:01:40;4.10;97.30
851;DHT22;412;51.400;7.480;2023-02-28T04:04:08;3.60;96.90
851;DHT22;412;51.400;7.480;2023-02-28T04:06:34;3.60;96.80
851;DHT22;412;51.400;7.480;2023-02-28T04:09:01;4.00;97.10
851;DHT22;412;51.400;7.480;2023-02-28T04:11:41;3.60;96.50
851;DHT22;412;51.400;7.480;2023-02-28T04:14:08;4.40;96.70
851;DHT22;412;51.400;7.480;2023-02-28T04:16:36;3.60;96.20
851;DHT22;412;51.400;7.480;2023-02-28T04:19:04;3.60;96.20
851;DHT22;412;51.400;7.480;2023-02-28T04:21:39;3.50;96.00
851;DHT22;412;51.400;7.480;2023-02-28T04:24:06;3.50;95.90
851;DHT22;412;51.400;7.480;2023-02-28T04:26:34;3.40;95.90
851;DHT22;412;51.400;7.480;2023-02-28T04:29:01;3.30;96.00
851;DHT22;412;51.400;7.480;2023-02-28T04:31:27;3.30;96.30
851;DHT22;412;51.400;7.480;2023-02-28T04:33:53;3.20;96.10
851;DHT22;412;51.400;7.480;2023-02-28T04:36:19;3.10;96.00
851;DHT22;412;51.400;7.480;2023-02-28T04:38:45;2.90;96.20
851;DHT22;412;51.400;7.480;2023-02-28T04:41:17;2.80;97.10
851;DHT22;412;51.400;7.480;2023-02-28T04:43:43;2.90;97.10
851;DHT22;412;51.400;7.480;2023-02-28T04:46:09;2.90;96.70
851;DHT22;412;51.400;7.480;2023-02-28T04:48:37;2.90;97.00
851;DHT22;412;51.400;7.480;2023-02-28T04:51:08;3.10;97.40
851;DHT22;412;51.400;7.480;2023-02-28T04:53:35;3.00;96.70
851;DHT22;412;51.400;7.480;2023-02-28T04:56:01;3.20;96.50
851;DHT22;412;51.400;7.480;2023-02-28T04:58:27;3.10;96.20
851;DHT22;412;51.400;7.480;2023-02-28T05:00:54;3.10;96.20
851;DHT22;412;51.400;7.480;2023-02-28T05:03:26;3.20;96.10
851;DHT22;412;51.400;7.480;2023-02-28T05:05:51;3.20;95.60
851;DHT22;412;51.400;7.480;2023-02-28T05:08:17;3.20;95.60
851;DHT22;412;51.400;7.480;2023-02-28T05:10:43;3.20;95.40
851;DHT22;412;51.400;7.480;2023-02-28T05:13:12;3.20;95.30
851;DHT22;412;51.400;7.480;2023-02-28T05:15:37;3.20;95.00
851;DHT22;412;51.400;7.480;2023-02-28T05:18:03;3.10;94.40
851;DHT22;412;51.400;7.480;2023-02-28T05:20:29;3.30;94.70
851;DHT22;412;51.400;7.480;2023-02-28T05:22:54;3.50;94.80
851;DHT22;412;51.400;7.480;2023-02-28T05:25:21;3.00;99.90
851;DHT22;412;51.400;7.480;2023-02-28T05:27:48;2.80;99.90
851;DHT22;412;51.400;7.480;2023-02-28T05:30:14;2.80;99.90
851;DHT22;412;51.400;7.480;2023-02-28T05:32:41;2.80;99.90
851;DHT22;412;51.400;7.480;2023-02-28T05:35:11;2.50;99.90
851;DHT22;412;51.400;7.480;2023-02-28T05:37:38;2.90;94.40
851;DHT22;412;51.400;7.480;2023-02-28T05:40:05;3.20;94.80
851;DHT22;412;51.400;7.480;2023-02-28T05:42:33;3.10;94.40
851;DHT22;412;51.400;7.480;2023-02-28T05:44:59;3.10;94.30
851;DHT22;412;51.400;7.480;2023-02-28T05:49:50;3.10;99.90
851;DHT22;412;51.400;7.480;2023-02-28T05:54:42;3.20;93.30
851;DHT22;412;51.400;7.480;2023-02-28T05:57:08;3.10;93.80
851;DHT22;412;51.400;7.480;2023-02-28T05:59:33;3.30;93.90
851;DHT22;412;51.400;7.480;2023-02-28T06:01:59;3.10;94.00
851;DHT22;412;51.400;7.480;2023-02-28T06:06:51;3.00;93.20
851;DHT22;412;51.400;7.480;2023-02-28T06:09:17;2.90;93.50
851;DHT22;412;51.400;7.480;2023-02-28T06:11:43;3.10;99.90
851;DHT22;412;51.400;7.480;2023-02-28T06:14:17;3.00;99.90
851;DHT22;412;51.400;7.480;2023-02-28T06:16:43;2.90;99.90
851;DHT22;412;51.400;7.480;2023-02-28T06:21:35;2.80;99.90
851;DHT22;412;51.400;7.480;2023-02-28T06:24:01;2.80;99.90
851;DHT22;412;51.400;7.480;2023-02-28T06:26:27;3.70;95.10
851;DHT22;412;51.400;7.480;2023-02-28T06:31:20;2.80;99.90
851;DHT22;412;51.400;7.480;2023-02-28T06:33:46;2.80;99.90
851;DHT22;412;51.400;7.480;2023-02-28T06:36:13;2.50;95.40
851;DHT22;412;51.400;7.480;2023-02-28T06:38:40;2.90;99.90
851;DHT22;412;51.400;7.480;2023-02-28T06:41:07;2.80;94.90
851;DHT22;412;51.400;7.480;2023-02-28T06:43:35;3.20;95.10
851;DHT22;412;51.400;7.480;2023-02-28T06:46:04;2.90;94.70
851;DHT22;412;51.400;7.480;2023-02-28T06:48:30;3.00;94.20
851;DHT22;412;51.400;7.480;2023-02-28T06:51:08;3.00;99.90
851;DHT22;412;51.400;7.480;2023-02-28T06:53:34;3.00;99.90
851;DHT22;412;51.400;7.480;2023-02-28T06:56:04;5.30;95.50
851;DHT22;412;51.400;7.480;2023-02-28T06:58:32;3.10;94.20
851;DHT22;412;51.400;7.480;2023-02-28T07:00:57;3.10;93.60
851;DHT22;412;51.400;7.480;2023-02-28T07:05:49;3.60;99.90
851;DHT22;412;51.400;7.480;2023-02-28T07:08:15;3.90;94.10
851;DHT22;412;51.400;7.480;2023-02-28T07:10:41;3.30;93.90
851;DHT22;412;51.400;7.480;2023-02-28T07:13:08;3.30;93.90
851;DHT22;412;51.400;7.480;2023-02-28T07:15:37;3.70;93.60
851;DHT22;412;51.400;7.480;2023-02-28T07:18:02;3.50;93.20
851;DHT22;412;51.400;7.480;2023-02-28T07:20:29;3.40;92.90
851;DHT22;412;51.400;7.480;2023-02-28T07:22:55;3.40;92.70
851;DHT22;412;51.400;7.480;2023-02-28T07:25:30;3.50;92.20
851;DHT22;412;51.400;7.480;2023-02-28T07:27:59;3.60;92.20
851;DHT22;412;51.400;7.480;2023-02-28T07:30:25;4.30;92.30
851;DHT22;412;51.400;7.480;2023-02-28T07:35:17;3.50;91.40
851;DHT22;412;51.400;7.480;2023-02-28T07:37:43;4.50;92.10
851;DHT22;412;51.400;7.480;2023-02-28T07:40:11;3.40;91.80
851;DHT22;412;51.400;7.480;2023-02-28T07:42:37;3.50;92.00
851;DHT22;412;51.400;7.480;2023-02-28T07:45:04;4.00;92.60
851;DHT22;412;51.400;7.480;2023-02-28T07:47:31;3.70;99.90
851;DHT22;412;51.400;7.480;2023-02-28T07:49:57;4.20;92.20
851;DHT22;412;51.400;7.480;2023-02-28T07:52:23;5.00;93.10
851;DHT22;412;51.400;7.480;2023-02-28T07:54:50;3.80;92.10
851;DHT22;412;51.400;7.480;2023-02-28T07:57:15;3.90;91.30
851;DHT22;412;51.400;7.480;2023-02-28T08:02:13;3.90;98.80
851;DHT22;412;51.400;7.480;2023-02-28T08:09:32;3.80;98.00
851;DHT22;412;51.400;7.480;2023-02-28T08:11:58;4.00;91.10
851;DHT22;412;51.400;7.480;2023-02-28T08:16:49;4.10;98.80
851;DHT22;412;51.400;7.480;2023-02-28T08:21:41;4.00;96.70
851;DHT22;412;51.400;7.480;2023-02-28T08:24:07;4.00;84.50
851;DHT22;412;51.400;7.480;2023-02-28T08:28:59;4.30;99.90
851;DHT22;412;51.400;7.480;2023-02-28T08:33:50;4.40;99.90
851;DHT22;412;51.400;7.480;2023-02-28T08:36:19;4.30;97.40
851;DHT22;412;51.400;7.480;2023-02-28T08:38:44;5.70;86.90
851;DHT22;412;51.400;7.480;2023-02-28T08:41:12;4.50;99.10
851;DHT22;412;51.400;7.480;2023-02-28T08:43:39;4.60;82.60
851;DHT22;412;51.400;7.480;2023-02-28T08:46:05;5.30;84.10
851;DHT22;412;51.400;7.480;2023-02-28T08:48:33;4.70;97.20
851;DHT22;412;51.400;7.480;2023-02-28T08:51:02;4.50;95.70
851;DHT22;412;51.400;7.480;2023-02-28T08:53:28;5.40;83.70
851;DHT22;412;51.400;7.480;2023-02-28T08:56:06;4.70;98.80
851;DHT22;412;51.400;7.480;2023-02-28T08:58:31;4.80;84.10
851;DHT22;412;51.400;7.480;2023-02-28T09:00:57;4.50;94.80
851;DHT22;412;51.400;7.480;2023-02-28T09:03:23;4.90;82.40
851;DHT22;412;51.400;7.480;2023-02-28T09:06:00;4.90;79.20
851;DHT22;412;51.400;7.480;2023-02-28T09:08:28;5.00;78.80
851;DHT22;412;51.400;7.480;2023-02-28T09:10:54;5.20;95.30
851;DHT22;412;51.400;7.480;2023-02-28T09:13:22;5.30;95.50
851;DHT22;412;51.400;7.480;2023-02-28T09:15:48;5.00;91.80
851;DHT22;412;51.400;7.480;2023-02-28T09:18:14;5.30;94.90
851;DHT22;412;51.400;7.480;2023-02-28T09:20:43;4.60;78.90
851;DHT22;412;51.400;7.480;2023-02-28T09:23:10;5.40;94.70
851;DHT22;412;51.400;7.480;2023-02-28T09:25:36;5.80;80.00
851;DHT22;412;51.400;7.480;2023-02-28T09:28:03;6.10;96.50
851;DHT22;412;51.400;7.480;2023-02-28T09:30:29;5.40;79.30
851;DHT22;412;51.400;7.480;2023-02-28T09:32:55;5.60;95.70
851;DHT22;412;51.400;7.480;2023-02-28T09:35:21;5.40;94.50
851;DHT22;412;51.400;7.480;2023-02-28T09:37:51;5.40;96.20
851;DHT22;412;51.400;7.480;2023-02-28T09:40:19;5.40;78.10
851;DHT22;412;51.400;7.480;2023-02-28T09:42:48;5.40;77.90
851;DHT22;412;51.400;7.480;2023-02-28T09:45:38;7.00;80.30
851;DHT22;412;51.400;7.480;2023-02-28T09:48:18;5.40;78.60
851;DHT22;412;51.400;7.480;2023-02-28T09:50:49;6.40;81.00
851;DHT22;412;51.400;7.480;2023-02-28T09:53:32;5.40;79.90
851;DHT22;412;51.400;7.480;2023-02-28T09:56:02;5.70;98.00
851;DHT22;412;51.400;7.480;2023-02-28T09:58:48;5.90;98.00
851;DHT22;412;51.400;7.480;2023-02-28T10:07:03;6.30;78.00
851;DHT22;412;51.400;7.480;2023-02-28T10:09:32;7.00;79.40
851;DHT22;412;51.400;7.480;2023-02-28T10:12:04;6.30;95.40
851;DHT22;412;51.400;7.480;2023-02-28T10:14:33;6.20;78.00
851;DHT22;412;51.400;7.480;2023-02-28T10:17:11;6.40;95.40
851;DHT22;412;51.400;7.480;2023-02-28T10:19:59;8.00;79.50
851;DHT22;412;51.400;7.480;2023-02-28T10:22:31;6.60;94.10
851;DHT22;412;51.400;7.480;2023-02-28T10:27:32;6.50;73.70
851;DHT22;412;51.400;7.480;2023-02-28T10:30:00;6.50;92.80
851;DHT22;412;51.400;7.480;2023-02-28T10:32:31;6.70;76.10
851;DHT22;412;51.400;7.480;2023-02-28T10:37:27;6.90;76.40
851;DHT22;412;51.400;7.480;2023-02-28T10:39:53;7.90;73.20
851;DHT22;412;51.400;7.480;2023-02-28T10:42:32;7.20;85.90
851;DHT22;412;51.400;7.480;2023-02-28T10:45:13;7.30;71.20
851;DHT22;412;51.400;7.480;2023-02-28T10:50:45;7.60;70.00
851;DHT22;412;51.400;7.480;2023-02-28T10:56:12;8.40;86.90
851;DHT22;412;51.400;7.480;2023-02-28T10:58:58;8.10;64.80
851;DHT22;412;51.400;7.480;2023-02-28T11:01:40;8.10;63.20
851;DHT22;412;51.400;7.480;2023-02-28T11:06:59;8.40;81.90
851;DHT22;412;51.400;7.480;2023-02-28T11:11:58;9.00;84.90
851;DHT22;412;51.400;7.480;2023-02-28T11:14:29;9.60;61.60
851;DHT22;412;51.400;7.480;2023-02-28T11:16:58;9.50;81.10
851;DHT22;412;51.400;7.480;2023-02-28T11:19:29;10.00;62.40
851;DHT22;412;51.400;7.480;2023-02-28T11:22:02;10.30;84.60
851;DHT22;412;51.400;7.480;2023-02-28T11:24:36;10.50;82.90
851;DHT22;412;51.400;7.480;2023-02-28T11:27:05;10.30;82.00
851;DHT22;412;51.400;7.480;2023-02-28T11:29:32;10.70;79.20
851;DHT22;412;51.400;7.480;2023-02-28T11:32:24;10.70;78.10
851;DHT22;412;51.400;7.480;2023-02-28T11:37:36;10.90;55.10
851;DHT22;412;51.400;7.480;2023-02-28T11:40:09;10.80;77.10
851;DHT22;412;51.400;7.480;2023-02-28T11:45:18;11.90;77.50
851;DHT22;412;51.400;7.480;2023-02-28T11:55:32;12.10;52.60
851;DHT22;412;51.400;7.480;2023-02-28T11:58:25;12.30;51.50
851;DHT22;412;51.400;7.480;2023-02-28T12:09:44;12.30;70.10
851;DHT22;412;51.400;7.480;2023-02-28T12:12:21;12.10;74.70
851;DHT22;412;51.400;7.480;2023-02-28T12:22:55;11.60;51.30
851;DHT22;412;51.400;7.480;2023-02-28T12:28:16;11.70;75.00
851;DHT22;412;51.400;7.480;2023-02-28T12:30:51;11.70;52.40
851;DHT22;412;51.400;7.480;2023-02-28T12:33:23;11.50;74.50
851;DHT22;412;51.400;7.480;2023-02-28T12:35:59;11.40;72.40
851;DHT22;412;51.400;7.480;2023-02-28T12:38:35;11.00;53.10
851;DHT22;412;51.400;7.480;2023-02-28T12:44:14;10.90;75.30
851;DHT22;412;51.400;7.480;2023-02-28T12:46:45;10.70;52.40
851;DHT22;412;51.400;7.480;2023-02-28T12:49:42;10.50;54.20
851;DHT22;412;51.400;7.480;2023-02-28T12:52:13;10.30;53.80
851;DHT22;412;51.400;7.480;2023-02-28T12:58:01;10.30;55.10
851;DHT22;412;51.400;7.480;2023-02-28T13:00:36;10.20;79.00
851;DHT22;412;51.400;7.480;2023-02-28T13:09:09;10.00;54.50
851;DHT22;412;51.400;7.480;2023-02-28T13:24:57;9.80;56.50
851;DHT22;412;51.400;7.480;2023-02-28T13:27:42;9.80;56.90
851;DHT22;412;51.400;7.480;2023-02-28T13:33:24;9.70;73.60
851;DHT22;412;51.400;7.480;2023-02-28T13:36:10;10.00;55.30
851;DHT22;412;51.400;7.480;2023-02-28T13:38:40;9.80;56.40
851;DHT22;412;51.400;7.480;2023-02-28T13:44:14;10.00;54.90
851;DHT22;412;51.400;7.480;2023-02-28T13:54:52;10.20;56.30
851;DHT22;412;51.400;7.480;2023-02-28T14:00:41;10.40;54.90
851;DHT22;412;51.400;7.480;2023-02-28T14:03:28;10.30;70.90
851;DHT22;412;51.400;7.480;2023-02-28T14:11:30;10.50;54.30
851;DHT22;412;51.400;7.480;2023-02-28T14:13:57;10.50;55.00
851;DHT22;412;51.400;7.480;2023-02-28T14:16:25;10.10;54.00
851;DHT22;412;51.400;7.480;2023-02-28T14:18:59;10.30;68.20
851;DHT22;412;51.400;7.480;2023-02-28T14:21:34;9.90;55.00
851;DHT22;412;51.400;7.480;2023-02-28T14:24:22;9.90;55.60
851;DHT22;412;51.400;7.480;2023-02-28T14:38:39;10.20;55.50
851;DHT22;412;51.400;7.480;2023-02-28T14:41:17;10.00;55.20
851;DHT22;412;51.400;7.480;2023-02-28T14:43:56;10.20;83.10
851;DHT22;412;51.400;7.480;2023-02-28T14:46:25;10.20;54.10
851;DHT22;412;51.400;7.480;2023-02-28T14:48:52;10.10;54.60
851;DHT22;412;51.400;7.480;2023-02-28T14:51:20;9.70;55.20
851;DHT22;412;51.400;7.480;2023-02-28T14:53:50;9.80;58.50
851;DHT22;412;51.400;7.480;2023-02-28T14:56:22;9.80;88.20
851;DHT22;412;51.400;7.480;2023-02-28T14:58:53;9.70;80.90
851;DHT22;412;51.400;7.480;2023-02-28T15:01:21;9.40;58.90
851;DHT22;412;51.400;7.480;2023-02-28T15:06:16;9.40;59.40
851;DHT22;412;51.400;7.480;2023-02-28T15:11:17;9.40;83.00
851;DHT22;412;51.400;7.480;2023-02-28T15:13:52;9.50;61.30
851;DHT22;412;51.400;7.480;2023-02-28T15:16:24;9.40;58.80
851;DHT22;412;51.400;7.480;2023-02-28T15:19:20;9.60;80.00
851;DHT22;412;51.400;7.480;2023-02-28T15:21:50;9.60;59.40
851;DHT22;412;51.400;7.480;2023-02-28T15:26:55;9.50;77.90
851;DHT22;412;51.400;7.480;2023-02-28T15:29:27;9.50;77.40
851;DHT22;412;51.400;7.480;2023-02-28T15:32:03;10.30;59.60
851;DHT22;412;51.400;7.480;2023-02-28T15:34:38;9.50;74.20
851;DHT22;412;51.400;7.480;2023-02-28T15:40:12;9.30;59.00
851;DHT22;412;51.400;7.480;2023-02-28T15:42:39;9.30;82.10
851;DHT22;412;51.400;7.480;2023-02-28T15:47:31;8.90;82.00
851;DHT22;412;51.400;7.480;2023-02-28T15:50:04;9.20;84.70
851;DHT22;412;51.400;7.480;2023-02-28T15:52:42;8.20;60.80
851;DHT22;412;51.400;7.480;2023-02-28T15:55:18;9.00;60.70
851;DHT22;412;51.400;7.480;2023-02-28T15:57:47;8.80;79.90
851;DHT22;412;51.400;7.480;2023-02-28T16:00:16;8.80;74.20
851;DHT22;412;51.400;7.480;2023-02-28T16:02:43;8.90;60.50
851;DHT22;412;51.400;7.480;2023-02-28T16:07:40;8.70;61.90
851;DHT22;412;51.400;7.480;2023-02-28T16:10:08;8.60;62.40
851;DHT22;412;51.400;7.480;2023-02-28T16:12:36;8.60;61.70
851;DHT22;412;51.400;7.480;2023-02-28T16:15:15;8.60;62.40
851;DHT22;412;51.400;7.480;2023-02-28T16:17:42;8.60;62.60
851;DHT22;412;51.400;7.480;2023-02-28T16:20:16;9.60;63.60
851;DHT22;412;51.400;7.480;2023-02-28T16:22:43;10.50;63.40
851;DHT22;412;51.400;7.480;2023-02-28T16:25:17;9.20;65.30
851;DHT22;412;51.400;7.480;2023-02-28T16:27:46;8.40;76.00
851;DHT22;412;51.400;7.480;2023-02-28T16:30:23;8.20;63.40
851;DHT22;412;51.400;7.480;2023-02-28T16:32:50;8.10;65.00
851;DHT22;412;51.400;7.480;2023-02-28T16:35:17;8.10;64.40
851;DHT22;412;51.400;7.480;2023-02-28T16:37:43;8.10;78.20
851;DHT22;412;51.400;7.480;2023-02-28T16:40:23;8.10;65.00
851;DHT22;412;51.400;7.480;2023-02-28T16:42:52;7.80;85.30
851;DHT22;412;51.400;7.480;2023-02-28T16:45:24;7.90;85.40
851;DHT22;412;51.400;7.480;2023-02-28T16:47:50;7.90;83.60
851;DHT22;412;51.400;7.480;2023-02-28T16:50:25;7.80;86.70
851;DHT22;412;51.400;7.480;2023-02-28T16:52:52;7.70;66.20
851;DHT22;412;51.400;7.480;2023-02-28T16:55:18;7.60;82.10
851;DHT22;412;51.400;7.480;2023-02-28T16:57:50;7.70;82.50
851;DHT22;412;51.400;7.480;2023-02-28T17:00:17;7.70;80.60
851;DHT22;412;51.400;7.480;2023-02-28T17:02:43;7.90;86.40
851;DHT22;412;51.400;7.480;2023-02-28T17:05:11;7.90;65.30
851;DHT22;412;51.400;7.480;2023-02-28T17:07:38;7.80;66.00
851;DHT22;412;51.400;7.480;2023-02-28T17:10:25;7.90;82.90
851;DHT22;412;51.400;7.480;2023-02-28T17:12:51;7.70;90.10
851;DHT22;412;51.400;7.480;2023-02-28T17:15:19;7.90;82.30
851;DHT22;412;51.400;7.480;2023-02-28T17:17:46;7.50;90.00
851;DHT22;412;51.400;7.480;2023-02-28T17:20:20;7.80;66.70
851;DHT22;412;51.400;7.480;2023-02-28T17:22:50;7.70;82.30
851;DHT22;412;51.400;7.480;2023-02-28T17:25:16;7.90;87.40
851;DHT22;412;51.400;7.480;2023-02-28T17:27:42;7.80;68.10
851;DHT22;412;51.400;7.480;2023-02-28T17:30:23;8.50;68.20
851;DHT22;412;51.400;7.480;2023-02-28T17:32:49;7.90;67.00
851;DHT22;412;51.400;7.480;2023-02-28T17:37:41;7.80;65.80
851;DHT22;412;51.400;7.480;2023-02-28T17:40:19;7.80;67.00
851;DHT22;412;51.400;7.480;2023-02-28T17:42:45;7.90;89.10
851;DHT22;412;51.400;7.480;2023-02-28T17:45:12;7.80;66.30
851;DHT22;412;51.400;7.480;2023-02-28T17:47:38;7.70;88.80
851;DHT22;412;51.400;7.480;2023-02-28T17:50:05;8.60;66.70
851;DHT22;412;51.400;7.480;2023-02-28T17:52:31;7.80;87.50
851;DHT22;412;51.400;7.480;2023-02-28T17:55:02;8.30;88.40
851;DHT22;412;51.400;7.480;2023-02-28T17:57:28;7.70;86.20
851;DHT22;412;51.400;7.480;2023-02-28T17:59:54;7.70;87.20
851;DHT22;412;51.400;7.480;2023-02-28T18:04:46;7.60;88.10
851;DHT22;412;51.400;7.480;2023-02-28T18:09:38;7.00;86.10
851;DHT22;412;51.400;7.480;2023-02-28T18:14:30;7.20;87.10
851;DHT22;412;51.400;7.480;2023-02-28T18:16:56;7.60;68.10
851;DHT22;412;51.400;7.480;2023-02-28T18:21:50;6.90;66.80
851;DHT22;412;51.400;7.480;2023-02-28T18:24:18;7.00;83.90
851;DHT22;412;51.400;7.480;2023-02-28T18:29:22;6.80;68.20
851;DHT22;412;51.400;7.480;2023-02-28T18:31:49;6.90;87.20
851;DHT22;412;51.400;7.480;2023-02-28T18:34:15;6.80;69.90
851;DHT22;412;51.400;7.480;2023-02-28T18:36:41;6.80;69.90
851;DHT22;412;51.400;7.480;2023-02-28T18:39:08;6.80;87.20
851;DHT22;412;51.400;7.480;2023-02-28T18:41:36;6.80;69.30
851;DHT22;412;51.400;7.480;2023-02-28T18:44:03;6.80;69.60
851;DHT22;412;51.400;7.480;2023-02-28T18:46:28;6.80;70.30
851;DHT22;412;51.400;7.480;2023-02-28T18:48:54;6.80;70.90
851;DHT22;412;51.400;7.480;2023-02-28T18:51:23;6.80;69.70
851;DHT22;412;51.400;7.480;2023-02-28T18:53:49;6.80;70.50
851;DHT22;412;51.400;7.480;2023-02-28T18:56:18;6.60;70.00
851;DHT22;412;51.400;7.480;2023-02-28T18:58:44;6.60;70.40
851;DHT22;412;51.400;7.480;2023-02-28T19:03:39;6.60;71.80
851;DHT22;412;51.400;7.480;2023-02-28T19:06:04;6.80;72.70
851;DHT22;412;51.400;7.480;2023-02-28T19:08:30;6.60;72.20
851;DHT22;412;51.400;7.480;2023-02-28T19:10:57;6.60;71.90
851;DHT22;412;51.400;7.480;2023-02-28T19:15:49;6.60;70.40
851;DHT22;412;51.400;7.480;2023-02-28T19:18:14;6.60;71.30
851;DHT22;412;51.400;7.480;2023-02-28T19:20:40;6.70;71.50
851;DHT22;412;51.400;7.480;2023-02-28T19:23:06;6.60;71.30
851;DHT22;412;51.400;7.480;2023-02-28T19:25:31;6.50;71.50
851;DHT22;412;51.400;7.480;2023-02-28T19:27:57;6.40;71.10
851;DHT22;412;51.400;7.480;2023-02-28T19:30:23;6.30;87.00
851;DHT22;412;51.400;7.480;2023-02-28T19:32:49;6.20;71.90
851;DHT22;412;51.400;7.480;2023-02-28T19:35:15;6.10;72.50
851;DHT22;412;51.400;7.480;2023-02-28T19:37:41;5.80;72.70
851;DHT22;412;51.400;7.480;2023-02-28T19:40:08;6.20;73.20
851;DHT22;412;51.400;7.480;2023-02-28T19:42:34;6.20;91.20
851;DHT22;412;51.400;7.480;2023-02-28T19:45:00;6.40;74.00
851;DHT22;412;51.400;7.480;2023-02-28T19:47:26;6.20;73.40
851;DHT22;412;51.400;7.480;2023-02-28T19:52:23;4.30;87.60
851;DHT22;412;51.400;7.480;2023-02-28T19:54:49;6.00;92.50
851;DHT22;412;51.400;7.480;2023-02-28T19:57:15;6.00;92.40
851;DHT22;412;51.400;7.480;2023-02-28T19:59:42;6.00;89.30
851;DHT22;412;51.400;7.480;2023-02-28T20:02:16;6.10;92.60
851;DHT22;412;51.400;7.480;2023-02-28T20:04:46;6.20;92.50
851;DHT22;412;51.400;7.480;2023-02-28T20:07:13;6.10;75.70
851;DHT22;412;51.400;7.480;2023-02-28T20:09:39;6.10;76.30
851;DHT22;412;51.400;7.480;2023-02-28T20:14:31;5.90;93.70
851;DHT22;412;51.400;7.480;2023-02-28T20:19:24;5.80;90.50
851;DHT22;412;51.400;7.480;2023-02-28T20:21:49;5.80;93.30
851;DHT22;412;51.400;7.480;2023-02-28T20:24:15;6.60;78.40
851;DHT22;412;51.400;7.480;2023-02-28T20:29:07;6.00;76.60
851;DHT22;412;51.400;7.480;2023-02-28T20:31:34;5.90;90.60
851;DHT22;412;51.400;7.480;2023-02-28T20:34:03;5.90;94.20
851;DHT22;412;51.400;7.480;2023-02-28T20:36:30;5.90;91.00
851;DHT22;412;51.400;7.480;2023-02-28T20:41:22;5.70;91.90
851;DHT22;412;51.400;7.480;2023-02-28T20:43:55;5.80;78.90
851;DHT22;412;51.400;7.480;2023-02-28T20:46:24;5.60;78.70
851;DHT22;412;51.400;7.480;2023-02-28T20:48:50;5.60;95.00
851;DHT22;412;51.400;7.480;2023-02-28T20:51:16;5.50;92.20
851;DHT22;412;51.400;7.480;2023-02-28T20:53:42;5.50;94.20